Time;durP1;ratioP1;P1;durP2;ratioP2;P2;SDS_P1;SDS_P2;PMS_P1;PMS_P2;Temp;Humidity;BMP_temperature;BMP_pressure;BME280_temperature;BME280_humidity;BME280_pressure;Samples;Min_cycle;Max_cycle;Signal;HPM_P1;HPM_P2
2022/06/30 00:01:01;;;;;;;17.10;8.40;;;15.90;99.90;;;;;;4845202;29;20057;-91
2022/06/30 00:03:42;;;;;;;5.57;4.05;;;15.90;99.90;;;;;;4852236;29;20041;-90
2022/06/30 00:06:30;;;;;;;22.52;8.20;;;15.80;99.90;;;;;;4855677;29;20067;-90
2022/06/30 00:09:04;;;;;;;6.82;4.75;;;15.70;99.90;;;;;;4864727;29;20049;-89
2022/06/30 00:11:52;;;;;;;7.55;5.20;;;15.50;99.90;;;;;;4865473;29;20049;-89
2022/06/30 00:19:17;;;;;;;8.32;6.60;;;15.50;99.90;;;;;;4863989;29;20056;-91
2022/06/30 00:21:54;;;;;;;11.70;7.20;;;15.60;99.90;;;;;;4888230;29;20048;-90
2022/06/30 00:24:41;;;;;;;7.10;6.40;;;15.60;99.90;;;;;;4852684;29;20063;-90
2022/06/30 00:27:52;;;;;;;9.43;5.50;;;15.60;99.90;;;;;;4870689;29;20164;-89
2022/06/30 00:30:44;;;;;;;6.35;5.72;;;15.40;99.90;;;;;;4835402;29;20053;-89
2022/06/30 00:33:43;;;;;;;9.45;7.22;;;15.40;99.90;;;;;;4841697;29;20057;-89
2022/06/30 00:36:21;;;;;;;7.90;6.63;;;15.40;99.90;;;;;;4827019;29;20058;-89
2022/06/30 00:39:01;;;;;;;6.28;5.57;;;15.40;99.90;;;;;;4807570;29;20504;-89
2022/06/30 00:41:39;;;;;;;10.40;6.55;;;15.40;99.90;;;;;;4807037;29;20493;-89
2022/06/30 00:44:18;;;;;;;6.88;6.18;;;15.40;99.90;;;;;;4809229;29;20113;-89
2022/06/30 00:47:10;;;;;;;6.50;5.43;;;15.40;99.90;;;;;;4820257;29;20053;-89
2022/06/30 00:49:42;;;;;;;8.38;6.70;;;15.40;99.90;;;;;;4801180;29;20070;-89
2022/06/30 00:52:28;;;;;;;7.32;6.35;;;15.40;99.90;;;;;;4828062;29;20061;-89
2022/06/30 00:54:58;;;;;;;7.95;6.97;;;15.40;99.90;;;;;;4855627;29;20061;-88
2022/06/30 00:57:29;;;;;;;7.43;5.60;;;15.30;99.90;;;;;;4840801;29;20058;-89
2022/06/30 01:00:09;;;;;;;24.90;8.77;;;15.30;99.90;;;;;;4839410;29;20054;-89
2022/06/30 01:02:44;;;;;;;7.93;5.43;;;15.20;99.90;;;;;;4839656;29;20055;-88
2022/06/30 01:05:34;;;;;;;8.57;7.72;;;15.10;99.90;;;;;;4840813;29;20050;-90
2022/06/30 01:08:26;;;;;;;8.40;6.28;;;15.20;99.90;;;;;;4826785;29;20057;-89
2022/06/30 01:13:47;;;;;;;12.13;6.88;;;15.20;99.90;;;;;;4835681;29;20658;-89
2022/06/30 01:16:24;;;;;;;18.83;8.23;;;15.20;99.90;;;;;;4876487;29;20076;-88
2022/06/30 01:18:56;;;;;;;7.72;5.22;;;15.20;99.90;;;;;;4850188;29;20069;-88
2022/06/30 01:21:27;;;;;;;42.38;10.63;;;15.20;99.90;;;;;;4811415;29;20057;-88
2022/06/30 01:24:01;;;;;;;77.85;16.70;;;15.20;99.90;;;;;;4827289;29;20510;-88
2022/06/30 01:26:34;;;;;;;62.53;11.27;;;15.20;99.90;;;;;;4810779;29;20045;-88
2022/06/30 01:29:09;;;;;;;18.00;7.63;;;15.10;99.90;;;;;;4811765;29;20804;-87
2022/06/30 01:31:43;;;;;;;6.13;5.53;;;15.10;99.90;;;;;;4827137;29;20049;-88
2022/06/30 01:34:13;;;;;;;5.95;5.15;;;15.10;99.90;;;;;;4827239;29;20054;-89
2022/06/30 01:36:47;;;;;;;6.97;5.90;;;15.10;99.90;;;;;;4836572;29;20514;-88
2022/06/30 01:39:15;;;;;;;21.48;4.95;;;15.10;99.90;;;;;;4875634;29;20060;-88
2022/06/30 01:41:48;;;;;;;6.50;5.82;;;15.10;99.90;;;;;;4833512;29;20065;-88
2022/06/30 01:44:25;;;;;;;7.88;5.85;;;14.90;99.90;;;;;;4840782;29;20073;-88
2022/06/30 01:46:55;;;;;;;25.92;6.80;;;14.90;99.90;;;;;;4824953;29;20514;-87
2022/06/30 01:49:31;;;;;;;20.35;7.35;;;14.90;99.90;;;;;;4825502;29;20061;-88
2022/06/30 01:51:59;;;;;;;5.50;4.40;;;14.70;99.90;;;;;;4854905;29;20053;-87
2022/06/30 01:54:28;;;;;;;38.38;9.05;;;14.70;99.90;;;;;;4854847;29;20057;-87
2022/06/30 01:56:56;;;;;;;28.02;8.95;;;14.60;99.90;;;;;;4853415;29;20062;-87
2022/06/30 01:59:32;;;;;;;32.35;7.85;;;14.70;99.90;;;;;;4821246;29;20070;-87
2022/06/30 02:02:00;;;;;;;31.05;8.50;;;14.70;99.90;;;;;;4806566;29;20050;-87
2022/06/30 02:04:46;;;;;;;15.70;9.10;;;14.80;99.90;;;;;;4837022;29;20050;-87
2022/06/30 02:07:15;;;;;;;11.40;7.05;;;14.90;99.90;;;;;;4821642;29;20125;-86
2022/06/30 02:09:51;;;;;;;10.52;8.02;;;14.90;99.90;;;;;;4850842;29;20051;-87
2022/06/30 02:12:45;;;;;;;16.90;6.22;;;15.00;99.90;;;;;;4837827;29;20058;-87
2022/06/30 02:15:21;;;;;;;7.20;5.68;;;14.90;99.90;;;;;;4822299;29;20042;-88
2022/06/30 02:17:52;;;;;;;9.88;7.00;;;14.80;99.90;;;;;;4836923;29;20070;-87
2022/06/30 02:20:23;;;;;;;25.27;9.77;;;14.80;99.90;;;;;;4821583;29;20042;-87
2022/06/30 02:22:54;;;;;;;23.42;7.97;;;14.80;99.90;;;;;;4851943;29;20046;-86
2022/06/30 02:25:25;;;;;;;21.10;10.00;;;14.80;99.90;;;;;;4836782;29;20062;-87
2022/06/30 02:27:58;;;;;;;6.50;5.90;;;14.80;99.90;;;;;;4824538;29;20488;-86
2022/06/30 02:30:26;;;;;;;9.27;5.38;;;14.80;99.90;;;;;;4822665;29;20043;-86
2022/06/30 02:32:54;;;;;;;9.30;6.43;;;14.80;99.90;;;;;;4839053;29;20049;-86
2022/06/30 02:35:22;;;;;;;5.97;5.13;;;14.70;99.90;;;;;;4824474;29;20045;-85
2022/06/30 02:37:53;;;;;;;6.30;5.27;;;14.70;99.90;;;;;;4825627;29;20038;-86
2022/06/30 02:40:23;;;;;;;12.35;6.90;;;14.70;99.90;;;;;;4841010;29;20058;-86
2022/06/30 02:42:57;;;;;;;8.43;5.82;;;14.60;99.90;;;;;;4811348;29;20065;-86
2022/06/30 02:45:26;;;;;;;6.65;5.13;;;14.60;99.90;;;;;;4826300;29;20725;-86
2022/06/30 02:47:55;;;;;;;6.95;5.88;;;14.60;99.90;;;;;;4827664;29;20049;-86
2022/06/30 02:50:23;;;;;;;10.40;6.75;;;14.60;99.90;;;;;;4842820;29;20385;-86
2022/06/30 02:52:51;;;;;;;10.15;6.20;;;14.50;99.90;;;;;;4843659;29;20484;-86
2022/06/30 02:55:19;;;;;;;5.88;5.28;;;14.50;99.90;;;;;;4857810;29;20057;-86
2022/06/30 02:57:47;;;;;;;8.90;6.35;;;14.60;99.90;;;;;;4857983;29;20473;-85
2022/06/30 03:00:15;;;;;;;10.68;5.65;;;14.50;99.90;;;;;;4842591;29;20062;-85
2022/06/30 03:02:43;;;;;;;14.18;6.50;;;14.40;99.90;;;;;;4843878;29;20724;-86
2022/06/30 03:05:11;;;;;;;12.18;5.78;;;14.40;99.90;;;;;;4859186;29;20503;-85
2022/06/30 03:07:39;;;;;;;9.50;6.97;;;14.30;99.90;;;;;;4844298;29;20046;-85
2022/06/30 03:10:08;;;;;;;7.28;6.15;;;14.40;99.90;;;;;;4841938;29;20053;-85
2022/06/30 03:12:39;;;;;;;11.68;6.43;;;14.50;99.90;;;;;;4858255;29;20144;-85
2022/06/30 03:15:19;;;;;;;6.30;5.80;;;14.50;99.90;;;;;;4858295;29;20057;-85
2022/06/30 03:17:47;;;;;;;5.97;5.38;;;14.50;99.90;;;;;;4828890;29;20054;-85
2022/06/30 03:20:15;;;;;;;7.82;7.00;;;14.50;99.90;;;;;;4841654;29;20060;-85
2022/06/30 03:22:43;;;;;;;6.15;5.55;;;14.50;99.90;;;;;;4841798;29;20063;-85
2022/06/30 03:25:11;;;;;;;4.88;4.40;;;14.50;99.90;;;;;;4826222;29;20062;-85
2022/06/30 03:27:39;;;;;;;5.22;4.57;;;14.50;99.90;;;;;;4833634;29;20054;-85
2022/06/30 03:30:08;;;;;;;6.10;4.90;;;14.60;99.90;;;;;;4838853;29;20059;-85
2022/06/30 03:32:36;;;;;;;8.45;6.28;;;14.70;99.90;;;;;;4839509;29;20051;-86
2022/06/30 03:35:05;;;;;;;5.38;4.82;;;14.80;99.90;;;;;;4838617;29;20046;-86
2022/06/30 03:37:34;;;;;;;16.88;5.35;;;14.80;99.90;;;;;;4824632;29;20062;-86
2022/06/30 03:40:03;;;;;;;6.90;6.05;;;14.90;99.90;;;;;;4823516;29;20066;-86
2022/06/30 03:42:37;;;;;;;8.55;6.40;;;14.90;99.90;;;;;;4837767;29;20043;-86
2022/06/30 03:45:12;;;;;;;8.23;6.45;;;15.00;99.90;;;;;;4837503;29;20057;-86
2022/06/30 03:47:40;;;;;;;6.60;5.78;;;15.00;99.90;;;;;;4838494;29;20051;-86
2022/06/30 03:50:09;;;;;;;6.13;5.63;;;15.00;99.90;;;;;;4822928;29;20054;-87
2022/06/30 03:52:37;;;;;;;7.47;5.53;;;15.10;99.90;;;;;;4830784;29;20650;-87
2022/06/30 03:55:06;;;;;;;6.97;5.95;;;15.10;99.90;;;;;;4830503;29;20045;-87
2022/06/30 03:57:34;;;;;;;10.40;4.93;;;15.10;99.90;;;;;;4792183;29;20054;-87
2022/06/30 04:00:04;;;;;;;10.07;6.13;;;15.10;99.90;;;;;;4807346;29;20054;-86
2022/06/30 04:02:32;;;;;;;7.47;4.70;;;15.20;99.90;;;;;;4822429;29;20925;-87
2022/06/30 04:05:00;;;;;;;5.35;4.88;;;15.30;99.90;;;;;;4807459;29;20069;-86
2022/06/30 04:07:28;;;;;;;6.55;5.22;;;15.40;99.90;;;;;;4812297;29;20061;-87
2022/06/30 04:09:56;;;;;;;10.88;5.57;;;15.40;99.90;;;;;;4839569;29;20078;-86
2022/06/30 04:12:24;;;;;;;4.65;4.22;;;15.50;99.90;;;;;;4831719;29;20059;-86
2022/06/30 04:14:59;;;;;;;8.80;6.03;;;15.50;99.90;;;;;;4824223;29;20048;-86
2022/06/30 04:17:28;;;;;;;5.63;3.90;;;15.50;99.90;;;;;;4833272;29;20069;-87
2022/06/30 04:19:56;;;;;;;4.97;4.50;;;15.50;99.90;;;;;;4809570;29;20057;-86
2022/06/30 04:22:26;;;;;;;4.03;3.70;;;15.50;99.90;;;;;;4842266;29;20053;-86
2022/06/30 04:24:54;;;;;;;4.70;4.15;;;15.30;99.90;;;;;;4841115;29;20062;-87
2022/06/30 04:27:57;;;;;;;3.67;3.38;;;15.30;99.90;;;;;;4840830;29;20493;-87
2022/06/30 04:33:09;;;;;;;4.60;3.92;;;15.40;99.90;;;;;;4824300;29;20058;-87
2022/06/30 04:35:37;;;;;;;4.38;3.92;;;15.50;99.90;;;;;;4821981;29;20057;-87
2022/06/30 04:38:07;;;;;;;6.07;4.22;;;15.50;99.90;;;;;;4823171;29;20046;-87
2022/06/30 04:43:34;;;;;;;4.03;3.72;;;15.60;99.90;;;;;;4865554;29;20054;-87
2022/06/30 04:46:07;;;;;;;6.35;5.00;;;15.70;99.90;;;;;;4837384;29;20531;-87
2022/06/30 04:48:41;;;;;;;5.10;4.00;;;15.80;99.90;;;;;;4825558;29;20405;-86
2022/06/30 04:51:09;;;;;;;6.72;4.78;;;15.90;99.90;;;;;;4837228;29;20513;-86
2022/06/30 04:53:37;;;;;;;5.88;5.30;;;16.10;99.90;;;;;;4841380;29;20057;-87
2022/06/30 04:56:06;;;;;;;4.60;4.07;;;16.20;99.90;;;;;;4825721;29;20064;-90
2022/06/30 04:58:37;;;;;;;5.55;4.97;;;16.30;99.90;;;;;;4825100;29;20645;-89
2022/06/30 05:01:11;;;;;;;6.30;5.00;;;16.40;99.90;;;;;;4855784;29;20519;-89
2022/06/30 05:03:50;;;;;;;4.68;4.28;;;16.50;99.90;;;;;;4856764;29;20041;-90
2022/06/30 05:06:18;;;;;;;6.70;5.32;;;16.60;99.90;;;;;;4840781;29;20046;-88
2022/06/30 05:08:53;;;;;;;6.43;5.28;;;16.70;99.90;;;;;;4841966;29;20056;-89
2022/06/30 05:11:22;;;;;;;7.63;5.25;;;16.80;99.90;;;;;;4840218;29;20061;-89
2022/06/30 05:13:54;;;;;;;7.88;4.97;;;16.80;99.90;;;;;;4840886;29;20053;-89
2022/06/30 05:16:46;;;;;;;5.78;5.28;;;16.90;99.90;;;;;;4831444;29;20054;-90
2022/06/30 05:19:28;;;;;;;6.18;5.53;;;17.00;99.90;;;;;;4837406;29;20042;-86
2022/06/30 05:22:00;;;;;;;7.55;5.72;;;17.10;99.90;;;;;;4822490;29;20050;-89
2022/06/30 05:27:20;;;;;;;5.88;5.38;;;17.10;99.90;;;;;;4813922;29;20038;-86
2022/06/30 05:29:48;;;;;;;5.03;4.57;;;17.30;99.90;;;;;;4836287;29;20571;-84
2022/06/30 05:32:16;;;;;;;5.35;4.53;;;17.30;99.90;;;;;;4806646;29;20058;-85
2022/06/30 05:34:44;;;;;;;8.40;5.95;;;17.40;99.90;;;;;;4836363;29;20057;-84
2022/06/30 05:37:13;;;;;;;8.60;5.80;;;17.40;99.90;;;;;;4837015;29;20061;-85
2022/06/30 05:39:49;;;;;;;5.18;4.68;;;17.50;99.90;;;;;;4842427;29;20049;-90
2022/06/30 05:42:20;;;;;;;9.25;6.40;;;17.50;99.90;;;;;;4843634;29;20053;-89
2022/06/30 05:44:48;;;;;;;5.28;4.78;;;17.60;99.90;;;;;;4839683;29;20054;-90
2022/06/30 05:47:16;;;;;;;5.65;4.45;;;17.70;99.90;;;;;;4824483;29;20058;-89
2022/06/30 05:49:44;;;;;;;5.75;5.05;;;17.80;99.90;;;;;;4854033;29;20053;-88
2022/06/30 05:52:12;;;;;;;7.97;5.85;;;17.80;99.90;;;;;;4824955;29;20057;-89
2022/06/30 05:54:40;;;;;;;5.10;4.60;;;17.80;99.90;;;;;;4839000;29;20061;-90
2022/06/30 05:57:12;;;;;;;5.72;4.78;;;17.80;99.90;;;;;;4825993;29;20061;-89
2022/06/30 05:59:40;;;;;;;10.93;5.88;;;17.90;99.90;;;;;;4839148;29;20061;-89
2022/06/30 06:02:08;;;;;;;7.93;5.53;;;18.00;99.90;;;;;;4834278;29;20053;-88
2022/06/30 06:04:36;;;;;;;8.43;5.03;;;18.00;99.90;;;;;;4839687;29;20058;-87
2022/06/30 06:07:04;;;;;;;8.70;6.18;;;18.10;99.90;;;;;;4840097;29;20061;-87
2022/06/30 06:09:33;;;;;;;8.57;6.88;;;18.10;99.90;;;;;;4843896;29;20066;-88
2022/06/30 06:12:01;;;;;;;10.70;6.45;;;18.30;99.90;;;;;;4844552;29;20082;-88
2022/06/30 06:15:03;;;;;;;5.03;4.40;;;18.40;99.90;;;;;;4835072;29;20400;-88
2022/06/30 06:17:31;;;;;;;8.98;6.88;;;18.50;99.90;;;;;;4844344;29;20058;-87
2022/06/30 06:20:00;;;;;;;13.77;6.82;;;18.50;99.90;;;;;;4855082;29;20070;-87
2022/06/30 06:22:28;;;;;;;6.00;5.35;;;18.40;99.90;;;;;;4825743;29;20046;-87
2022/06/30 06:24:55;;;;;;;6.35;4.80;;;18.40;99.90;;;;;;4840029;29;20054;-87
2022/06/30 06:27:27;;;;;;;6.13;5.07;;;18.50;99.90;;;;;;4809381;29;20062;-87
2022/06/30 06:29:55;;;;;;;6.43;5.40;;;18.70;99.90;;;;;;4854659;29;20516;-87
2022/06/30 06:32:24;;;;;;;5.22;4.72;;;18.80;99.90;;;;;;4839940;29;20057;-87
2022/06/30 06:34:52;;;;;;;14.60;5.60;;;18.90;99.90;;;;;;4824239;29;20046;-87
2022/06/30 06:37:22;;;;;;;9.93;6.03;;;18.80;99.90;;;;;;4826174;29;20520;-87
2022/06/30 06:39:50;;;;;;;6.72;5.50;;;18.80;99.90;;;;;;4823366;29;20049;-87
2022/06/30 06:42:18;;;;;;;6.03;4.68;;;19.00;99.90;;;;;;4838780;29;20054;-87
2022/06/30 06:44:48;;;;;;;5.85;5.32;;;19.10;99.90;;;;;;4825901;29;20050;-87
2022/06/30 06:47:16;;;;;;;5.68;5.15;;;19.20;99.90;;;;;;4840723;29;20041;-88
2022/06/30 06:49:46;;;;;;;6.40;5.80;;;19.40;99.90;;;;;;4843053;29;20069;-87
2022/06/30 06:52:18;;;;;;;6.13;5.53;;;19.50;99.90;;;;;;4841934;29;20698;-84
2022/06/30 06:54:46;;;;;;;8.18;6.20;;;19.50;99.90;;;;;;4843197;29;20053;-84
2022/06/30 06:57:14;;;;;;;7.18;5.63;;;19.40;99.90;;;;;;4844420;29;20057;-91
2022/06/30 06:59:42;;;;;;;6.68;5.05;;;19.50;99.90;;;;;;4842529;29;20060;-90
2022/06/30 07:02:10;;;;;;;7.72;5.22;;;19.70;99.90;;;;;;4858297;29;20042;-91
2022/06/30 07:04:38;;;;;;;10.10;7.70;;;19.70;99.90;;;;;;4843238;29;20057;-91
2022/06/30 07:07:10;;;;;;;6.95;5.95;;;19.70;99.90;;;;;;4857511;29;20053;-90
2022/06/30 07:09:38;;;;;;;7.10;5.00;;;19.80;99.90;;;;;;4857618;29;20060;-91
2022/06/30 07:12:07;;;;;;;6.43;4.25;;;19.90;99.90;;;;;;4842551;29;20057;-84
2022/06/30 07:14:35;;;;;;;5.15;4.65;;;20.10;99.90;;;;;;4842089;29;20054;-83
2022/06/30 07:17:04;;;;;;;5.45;4.95;;;20.30;99.90;;;;;;4843735;29;20061;-84
2022/06/30 07:19:32;;;;;;;6.55;4.97;;;20.40;99.90;;;;;;4826010;29;20052;-83
2022/06/30 07:22:00;;;;;;;6.05;4.97;;;20.60;99.90;;;;;;4841910;29;20066;-85
2022/06/30 07:24:28;;;;;;;5.63;5.13;;;20.70;99.90;;;;;;4843416;29;20042;-84
2022/06/30 07:26:56;;;;;;;9.18;7.00;;;20.70;99.90;;;;;;4841921;29;20042;-83
2022/06/30 07:29:26;;;;;;;8.23;5.55;;;20.80;99.90;;;;;;4831761;29;20061;-84
2022/06/30 07:31:57;;;;;;;6.07;5.40;;;21.00;99.90;;;;;;4826437;29;20053;-84
2022/06/30 07:34:34;;;;;;;8.23;5.82;;;21.20;99.90;;;;;;4856000;29;20049;-83
2022/06/30 07:37:05;;;;;;;6.10;4.20;;;21.30;99.90;;;;;;4843630;29;20397;-84
2022/06/30 07:39:33;;;;;;;10.70;5.20;;;21.30;99.90;;;;;;4856646;29;20038;-84
2022/06/30 07:42:01;;;;;;;9.27;5.80;;;21.40;99.90;;;;;;4843562;29;20078;-83
2022/06/30 07:44:35;;;;;;;9.98;5.65;;;21.50;99.90;;;;;;4843663;29;20395;-84
2022/06/30 07:47:03;;;;;;;6.20;5.68;;;21.60;99.90;;;;;;4841816;29;20049;-85
2022/06/30 07:49:31;;;;;;;7.35;6.65;;;21.60;99.90;;;;;;4843112;29;20050;-84
2022/06/30 07:51:59;;;;;;;7.30;5.28;;;21.60;99.90;;;;;;4857714;29;20400;-83
2022/06/30 07:54:27;;;;;;;5.65;5.15;;;21.70;99.90;;;;;;4841254;29;20725;-82
2022/06/30 07:56:55;;;;;;;5.88;5.38;;;21.80;99.90;;;;;;4843281;29;20045;-84
2022/06/30 07:59:43;;;;;;;6.07;4.93;;;22.00;99.90;;;;;;4826365;29;20057;-85
2022/06/30 08:02:11;;;;;;;4.72;4.32;;;22.10;99.90;;;;;;4842958;29;20116;-84
2022/06/30 08:04:39;;;;;;;4.95;4.45;;;22.00;99.90;;;;;;4843114;29;20098;-84
2022/06/30 08:07:07;;;;;;;11.40;5.22;;;22.10;99.90;;;;;;4841337;29;20077;-83
2022/06/30 08:09:35;;;;;;;6.68;5.93;;;22.20;99.90;;;;;;4842064;29;20061;-83
2022/06/30 08:12:04;;;;;;;7.25;6.55;;;22.30;99.90;;;;;;4843181;29;20058;-84
2022/06/30 08:15:11;;;;;;;5.53;4.82;;;22.40;99.90;;;;;;4842603;29;20389;-83
2022/06/30 08:17:39;;;;;;;4.70;4.05;;;22.50;99.90;;;;;;4842395;29;20061;-83
2022/06/30 08:20:08;;;;;;;5.15;4.63;;;22.60;99.90;;;;;;4842907;29;20050;-83
2022/06/30 08:22:36;;;;;;;4.72;4.32;;;22.50;99.90;;;;;;4841734;29;20050;-83
2022/06/30 08:25:04;;;;;;;6.43;4.93;;;22.50;99.90;;;;;;4842863;29;20544;-85
2022/06/30 08:27:32;;;;;;;6.88;4.50;;;22.60;99.90;;;;;;4842300;29;20050;-83
2022/06/30 08:30:00;;;;;;;6.07;3.60;;;22.70;99.90;;;;;;4840561;29;20057;-84
2022/06/30 08:32:29;;;;;;;5.85;4.50;;;22.80;99.90;;;;;;4843014;29;20062;-83
2022/06/30 08:34:57;;;;;;;5.05;4.55;;;22.90;99.90;;;;;;4842242;29;20050;-84
2022/06/30 08:37:28;;;;;;;4.82;3.75;;;22.80;99.90;;;;;;4856179;29;20693;-82
2022/06/30 08:43:49;;;;;;;6.43;3.17;;;23.00;99.90;;;;;;4844644;29;20050;-82
2022/06/30 08:46:19;;;;;;;6.45;3.22;;;23.10;99.90;;;;;;4841157;29;20837;-81
2022/06/30 08:48:48;;;;;;;4.30;3.78;;;23.10;99.90;;;;;;4842591;29;20058;-81
2022/06/30 08:51:19;;;;;;;3.60;3.30;;;23.10;99.90;;;;;;4825715;29;20404;-81
2022/06/30 08:53:56;;;;;;;4.80;4.47;;;23.20;99.90;;;;;;4842300;29;20054;-81
2022/06/30 08:56:28;;;;;;;10.88;3.47;;;23.20;99.90;;;;;;4841844;29;20057;-80
2022/06/30 08:58:56;;;;;;;5.00;3.63;;;23.10;99.90;;;;;;4855479;29;20057;-81
2022/06/30 09:01:26;;;;;;;5.72;3.58;;;23.20;99.90;;;;;;4825815;29;20136;-81
2022/06/30 09:03:55;;;;;;;4.47;3.92;;;23.30;99.90;;;;;;4855495;29;20046;-81
2022/06/30 09:06:23;;;;;;;5.10;3.95;;;23.30;99.90;;;;;;4840594;29;20056;-81
2022/06/30 09:09:05;;;;;;;5.00;4.63;;;23.30;99.90;;;;;;4837312;29;20098;-81
2022/06/30 09:11:51;;;;;;;7.00;4.85;;;23.30;99.90;;;;;;4823279;29;20500;-81
2022/06/30 09:14:41;;;;;;;5.53;4.22;;;23.30;99.90;;;;;;4823431;29;20058;-81
2022/06/30 09:17:29;;;;;;;5.38;4.85;;;23.40;99.90;;;;;;4823826;29;20054;-83
2022/06/30 09:20:12;;;;;;;5.03;4.53;;;23.50;99.90;;;;;;4850765;29;20058;-81
2022/06/30 09:22:42;;;;;;;4.97;3.95;;;23.50;99.90;;;;;;4837228;29;20527;-81
2022/06/30 09:25:22;;;;;;;4.80;4.18;;;23.60;99.90;;;;;;4825246;29;20046;-82
2022/06/30 09:27:50;;;;;;;4.00;3.60;;;23.60;99.90;;;;;;4855674;29;20050;-81
2022/06/30 09:30:21;;;;;;;3.58;3.28;;;23.70;99.90;;;;;;4840998;29;20220;-81
2022/06/30 09:32:54;;;;;;;4.22;3.58;;;23.60;99.90;;;;;;4841483;29;20149;-81
2022/06/30 09:35:25;;;;;;;7.78;3.50;;;23.60;99.90;;;;;;4841193;29;20065;-81
2022/06/30 09:38:03;;;;;;;9.00;4.80;;;23.60;99.90;;;;;;4840053;29;20053;-82
2022/06/30 09:41:00;;;;;;;4.00;3.13;;;23.70;99.90;;;;;;4855117;29;20049;-82
2022/06/30 09:43:35;;;;;;;6.72;3.90;;;23.80;99.90;;;;;;4839427;29;20508;-81
2022/06/30 09:46:05;;;;;;;8.63;3.70;;;23.80;99.90;;;;;;4841130;29;20050;-81
2022/06/30 09:48:39;;;;;;;5.67;4.20;;;23.80;99.90;;;;;;4855510;29;20922;-81
2022/06/30 09:51:07;;;;;;;7.55;3.85;;;23.80;99.90;;;;;;4840398;29;20519;-83
2022/06/30 09:53:35;;;;;;;5.82;4.65;;;23.90;99.90;;;;;;4841035;29;20061;-82
2022/06/30 09:56:14;;;;;;;4.03;3.70;;;24.00;99.90;;;;;;4841120;29;20049;-85
2022/06/30 09:58:42;;;;;;;4.78;3.65;;;24.10;99.90;;;;;;4854820;29;20054;-87
2022/06/30 10:01:14;;;;;;;7.88;3.03;;;24.10;99.90;;;;;;4840056;29;20061;-88
2022/06/30 10:03:47;;;;;;;4.53;4.03;;;24.20;99.90;;;;;;4840874;29;20400;-85
2022/06/30 10:06:16;;;;;;;4.63;3.92;;;24.30;99.90;;;;;;4824655;29;20054;-86
2022/06/30 10:08:45;;;;;;;9.00;4.13;;;24.30;99.90;;;;;;4839918;29;20553;-86
2022/06/30 10:11:13;;;;;;;4.97;4.28;;;24.30;99.90;;;;;;4824141;29;20046;-83
2022/06/30 10:13:48;;;;;;;5.85;4.68;;;24.30;99.90;;;;;;4824218;29;20046;-85
2022/06/30 10:16:17;;;;;;;3.75;3.45;;;24.40;99.90;;;;;;4824989;29;20504;-84
2022/06/30 10:18:46;;;;;;;8.75;3.95;;;24.50;99.90;;;;;;4824753;29;20049;-85
2022/06/30 10:21:14;;;;;;;4.45;4.15;;;24.60;99.90;;;;;;4840387;29;20074;-85
2022/06/30 10:23:43;;;;;;;4.28;3.92;;;24.70;99.90;;;;;;4841095;29;20655;-86
2022/06/30 10:27:12;;;;;;;4.13;3.38;;;24.80;99.90;;;;;;4840098;29;20050;-84
2022/06/30 10:29:06;;;;;;;4.57;3.47;;;24.60;99.90;;;;;;4855202;29;20050;-85
2022/06/30 10:31:42;;;;;;;3.13;2.90;;;24.60;99.90;;;;;;4840986;29;20053;-88
2022/06/30 10:34:22;;;;;;;12.32;4.55;;;24.60;99.90;;;;;;4833395;29;20054;-89
2022/06/30 10:37:24;;;;;;;6.05;4.32;;;24.70;99.90;;;;;;4839913;29;20065;-85
2022/06/30 10:40:14;;;;;;;3.83;3.08;;;24.70;99.90;;;;;;4808895;29;20794;-84
2022/06/30 10:42:47;;;;;;;4.03;3.17;;;24.70;99.90;;;;;;4824295;29;20504;-84
2022/06/30 10:45:31;;;;;;;5.95;4.18;;;24.70;99.90;;;;;;4841211;29;20046;-84
2022/06/30 10:48:08;;;;;;;5.35;3.42;;;24.70;99.90;;;;;;4839053;29;20064;-86
2022/06/30 10:50:42;;;;;;;4.05;3.70;;;24.90;99.90;;;;;;4839639;29;20054;-85
2022/06/30 10:53:21;;;;;;;6.15;3.63;;;24.90;99.90;;;;;;4841697;29;20614;-87
2022/06/30 10:55:54;;;;;;;9.80;3.72;;;24.90;99.90;;;;;;4827019;29;20050;-88
2022/06/30 10:58:22;;;;;;;3.78;3.40;;;24.90;99.90;;;;;;4858088;29;20049;-89
2022/06/30 11:01:13;;;;;;;4.68;3.85;;;24.90;99.90;;;;;;4843306;29;20069;-88
2022/06/30 11:03:56;;;;;;;13.10;4.68;;;24.90;99.90;;;;;;4857899;29;20077;-88
2022/06/30 11:06:44;;;;;;;7.95;3.80;;;24.90;99.90;;;;;;4843751;29;20647;-88
2022/06/30 11:09:12;;;;;;;7.82;4.25;;;24.90;99.90;;;;;;4842940;29;20046;-88
2022/06/30 11:11:43;;;;;;;4.40;3.30;;;24.90;99.90;;;;;;4826969;29;20057;-88
2022/06/30 11:14:27;;;;;;;6.15;4.63;;;25.00;99.90;;;;;;4827453;29;20790;-88
2022/06/30 11:17:24;;;;;;;4.75;3.40;;;25.00;99.90;;;;;;4843534;29;20045;-88
2022/06/30 11:20:09;;;;;;;13.90;4.00;;;25.10;99.90;;;;;;4841951;29;20057;-90
2022/06/30 11:22:44;;;;;;;4.13;3.72;;;25.10;99.90;;;;;;4842636;29;20065;-88
2022/06/30 11:28:05;;;;;;;4.60;3.10;;;25.10;99.90;;;;;;4841917;29;20058;-88
2022/06/30 11:30:35;;;;;;;4.20;3.85;;;25.20;99.90;;;;;;4826892;29;20049;-88
2022/06/30 11:33:03;;;;;;;5.47;3.27;;;25.20;99.90;;;;;;4843096;29;20050;-89
2022/06/30 11:35:31;;;;;;;3.17;2.95;;;25.20;99.90;;;;;;4842213;29;20057;-89
2022/06/30 11:37:59;;;;;;;3.35;3.03;;;25.20;99.90;;;;;;4827205;29;20042;-86
2022/06/30 11:40:30;;;;;;;10.13;4.40;;;25.30;99.90;;;;;;4857307;29;20050;-87
2022/06/30 11:43:19;;;;;;;4.90;3.33;;;25.30;99.90;;;;;;4841719;29;20060;-87
2022/06/30 11:46:03;;;;;;;3.10;2.90;;;25.30;99.90;;;;;;4842151;29;20065;-87
2022/06/30 11:48:32;;;;;;;3.15;2.67;;;25.20;99.90;;;;;;4828823;29;20057;-87
2022/06/30 11:51:04;;;;;;;4.43;3.80;;;25.20;99.90;;;;;;4824584;29;20054;-86
2022/06/30 11:53:52;;;;;;;3.83;3.50;;;25.30;99.90;;;;;;4824966;29;20057;-86
2022/06/30 11:56:24;;;;;;;14.80;4.90;;;25.40;99.90;;;;;;4857383;29;20050;-87
2022/06/30 11:59:06;;;;;;;6.72;3.53;;;25.50;99.90;;;;;;4841360;29;20050;-87
2022/06/30 12:01:34;;;;;;;9.95;3.17;;;25.60;99.90;;;;;;4857124;29;20425;-89
2022/06/30 12:04:15;;;;;;;3.47;3.00;;;25.50;99.90;;;;;;4843442;29;20481;-87
2022/06/30 12:06:44;;;;;;;3.33;3.13;;;25.50;99.90;;;;;;4823087;29;20632;-89
2022/06/30 12:09:12;;;;;;;4.22;3.80;;;25.40;99.90;;;;;;4852358;29;20053;-89
2022/06/30 12:11:40;;;;;;;4.63;3.67;;;25.40;99.90;;;;;;4826018;29;20046;-87
2022/06/30 12:14:15;;;;;;;3.58;2.67;;;25.40;99.90;;;;;;4841455;29;20488;-89
2022/06/30 12:16:44;;;;;;;3.70;3.40;;;25.50;99.90;;;;;;4841520;29;20678;-88
2022/06/30 12:19:16;;;;;;;2.65;2.45;;;25.60;99.90;;;;;;4849605;29;20049;-88
2022/06/30 12:21:45;;;;;;;3.08;2.88;;;25.60;99.90;;;;;;4841278;29;20042;-88
2022/06/30 12:24:13;;;;;;;4.13;3.35;;;25.60;99.90;;;;;;4841883;29;20050;-85
2022/06/30 12:26:53;;;;;;;12.68;4.53;;;25.60;99.90;;;;;;4855444;29;20049;-87
2022/06/30 12:29:23;;;;;;;8.13;3.47;;;25.60;99.90;;;;;;4826539;29;20050;-88
2022/06/30 12:32:10;;;;;;;3.63;3.30;;;25.60;99.90;;;;;;4856635;29;20057;-89
2022/06/30 12:34:55;;;;;;;4.28;3.20;;;25.60;99.90;;;;;;4842369;29;20049;-87
2022/06/30 12:37:38;;;;;;;3.72;2.42;;;25.60;99.90;;;;;;4841531;29;20054;-88
2022/06/30 12:40:13;;;;;;;9.52;3.38;;;25.60;99.90;;;;;;4824761;29;20055;-90
2022/06/30 12:42:47;;;;;;;6.07;3.33;;;25.70;99.90;;;;;;4842378;29;20490;-86
2022/06/30 12:45:49;;;;;;;6.60;3.83;;;25.70;99.90;;;;;;4842689;29;20057;-90
2022/06/30 12:48:46;;;;;;;10.60;3.40;;;25.80;99.90;;;;;;4839929;29;20049;-88
2022/06/30 12:51:16;;;;;;;4.55;3.13;;;25.90;99.90;;;;;;4840601;29;20049;-91
2022/06/30 12:53:46;;;;;;;;;;;25.90;99.90;;;;;;4841803;29;20054;-89
2022/06/30 12:56:20;;;;;;;7.05;4.35;;;25.90;99.90;;;;;;4825836;29;19925;-87
2022/06/30 12:58:59;;;;;;;6.53;4.50;;;25.90;99.90;;;;;;4825836;29;20533;-88
2022/06/30 13:01:42;;;;;;;3.67;3.20;;;25.90;99.90;;;;;;4842031;29;20054;-88
2022/06/30 13:04:21;;;;;;;4.25;2.70;;;25.90;99.90;;;;;;4856826;29;20054;-88
2022/06/30 13:06:52;;;;;;;4.03;3.08;;;26.00;99.90;;;;;;4856247;29;20042;-89
2022/06/30 13:09:25;;;;;;;;;;;26.00;99.90;;;;;;4856533;29;20058;-90
2022/06/30 13:12:13;;;;;;;7.28;3.63;;;26.10;99.90;;;;;;4836671;29;20400;-88
2022/06/30 13:14:55;;;;;;;5.60;4.30;;;26.20;99.90;;;;;;4828850;29;20147;-90
2022/06/30 13:17:24;;;;;;;19.15;4.32;;;26.20;99.90;;;;;;4841554;29;20057;-89
2022/06/30 13:19:52;;;;;;;11.35;4.68;;;26.30;99.90;;;;;;4855150;29;20404;-86
2022/06/30 13:22:20;;;;;;;5.70;4.25;;;26.20;99.90;;;;;;4841750;29;20045;-89
2022/06/30 13:24:47;;;;;;;12.35;4.65;;;26.10;99.90;;;;;;4855732;29;20050;-88
2022/06/30 13:27:16;;;;;;;5.55;4.05;;;26.20;99.90;;;;;;4840565;29;20069;-88
2022/06/30 13:29:46;;;;;;;5.65;3.47;;;26.20;99.90;;;;;;4855098;29;20439;-86
2022/06/30 13:32:14;;;;;;;7.63;4.25;;;26.20;99.90;;;;;;4825664;29;20061;-86
2022/06/30 13:34:42;;;;;;;10.95;3.92;;;26.20;99.90;;;;;;4855096;29;20068;-85
2022/06/30 13:37:10;;;;;;;5.20;3.85;;;26.20;99.90;;;;;;4823056;29;20057;-85
2022/06/30 13:39:38;;;;;;;7.10;4.38;;;26.20;99.90;;;;;;4822730;29;20042;-85